Airfield :
LOGIN :

Register | Disclaimer

   EN    FR    IT 

 










Legend :    VFR   Marginal VFR   IFR   Intensive IFR   Very Intensive IFR
Visi :
Ceiling :
>= 8 km
>= 3000ft
5 to 8 km
1000 to 3000 ft
1500m to 5 km
500 to 1000 ft
800 to 1500m
200 to 500 ft
< 800m
< 200 ft
Symbols :   Thunderstorms  Fog  Heavy snow  Heavy precipitations  Wind > 20 kt
SIGMETs :     Misc.  Thunderstorms  Icing  Turbulence  Mountain Waves  Volcanic Ashes






- Airport Elevation : 26 ft
- IATA code : SYY


EGPO - Stornoway

CURRENT METAR :
  • 032050Z AUTO 24008KT 9999 FEW026/// SCT037/// BKN048/// 11/09 Q1009

EXPIRED METARs :
  • 032020Z AUTO 24008KT 9999 SCT036/// BKN047/// 11/10 Q1009
  • 031950Z AUTO 24009KT 9999 SCT010/// BKN037/// 11/10 Q1009
  • 031920Z AUTO 23008KT 9999 FEW021/// BKN032/// BKN042/// 11/10 Q1009
  • 031850Z AUTO 23010KT 5000 -RA FEW001/// SCT008/// BKN016/// 11/10 Q1009 RERA
  • 031820Z AUTO 23009KT 9999 SCT017/// BKN021/// OVC031/// 12/10 Q1009
  • 030520Z AUTO 25007KT 9999 SCT019/// BKN049/// 12/11 Q1011
  • 031750Z AUTO 23012KT 9999 SCT014/// BKN019/// BKN029/// 12/10 Q1010

TAF TAF EGPO
Valid from the 03 at 21:00 until the 04 at 06:00 UTC


031957Z 0321/0406 24012KT 9999 SCT012 BKN030
TEMPO 0321/0406 6000 RA SHRA BKN012
PROB30
TEMPO 0321/0406 25018G28KT
PROB30
TEMPO 0321/0323 3000 +SHRA BKN009
PROB30
TEMPO 0402/0406 3000 +RA RADZ BKN008
ATIS : +44 1851 707 444



MET'MAP, your aeronautical weather chart ! - Copyright ORBIFLY December 2007 - Disclaimer

ORBIFLY MET'MAP TEAM :

Programming & Development : Alexandra Zaïnal
Original concept : Baudouin d'Aumeries
Technical & hardware support : Manuel Goepfert
Assistance : Marc-Olivier Méhu




SOURCES & CREDITS :

   NOAA